Main page
METAR-TAF:

Airports :

Tunis, Tunisia

Tunis–Carthage International Airport

latitude: 36-50N, longitude: 010-14E, elevation: 3 m

Current weather observation

The report was made 54 minutes ago, at 05:00 UTC
Wind 3 kt from the Southwest
Temperature 16°C
Humidity 59%
Pressure 1018 hPa
Visibility 10 km or more
Few clouds at a height of 2600 ft

METAR: DTTA 240500Z 23003KT 9999 FEW026 16/08 Q1018 NOSIG

Time: 06:54 (05:54 UTC)

Forecast

The report was made 24 minutes ago, at 05:30 UTC
Forecast valid from 24 at 06 UTC to 25 at 06 UTC
Wind 6 kt from the West/Southwest
Visibility 10 km or more
Few clouds at a height of 2600 ft
Becoming
from 24 at 12 UTC to 24 at 14 UTC
Wind 10 kt from the North/Northeast
Visibility 10 km or more
no clouds below 1500 m and no cumulonimbus
Becoming
from 25 at 00 UTC to 25 at 02 UTC
Wind 10 kt from the South/Southeast

TAF: DTTA 240530Z 2406/2506 24006KT 9999 FEW026 BECMG 2412/2414 03010KT CAVOK BECMG 2500/2502 16010KT

METAR-TAF

Weather observations and forecasts of more than 4000 airports (METAR and TAF reports).

The available stations are represented by yellow and red dots on the map.

Hover mouse over dot to see the name of the station.

Then click to see weather observations and forecasts.

To change the map : click on the green buttons with a black cross to zoom in, on the green button with a dash to zoom out, or on the green arrows for adjacent maps.


METAR-TAF: